Gloversville, New York
Current Conditions -  °F | °C
As of 8:35 PM on Monday 22 Dec 2014 (Local Time) from KNY0 Reporting Station
Overcast Overcast  
Wind Chill: 26°   Ceiling: 2600
Heat Index: 32°   Visibility: 10mi
Dew Point: 28°   Wind: 6mph
Humidity: 86%   Direction: 60°ENE
Pressure: 30.22"   Gusts: NA
Location:  43.06°N, 74.34°W
Report Text: KNY0 230135Z AUTO 06005KT 10SM SCT018 BKN026 OVC038 00/M02 A3022 RMK AO2 T10011022
Loading
Personal Weather Stations






























Interactive Weather Map New forecast layout! Learn more

10-Day Weather Forecast

Advertisements
Track Severe Weather on mobile